sensor_id;sensor_type;location;lat;lon;timestamp;temperature;humidity
78184;DHT22;67442;44.570;18.610;2023-05-24T00:01:40;24.20;67.80
78184;DHT22;67442;44.570;18.610;2023-05-24T00:04:08;24.20;67.80
78184;DHT22;67442;44.570;18.610;2023-05-24T00:06:40;24.20;67.80
78184;DHT22;67442;44.570;18.610;2023-05-24T00:09:10;24.20;67.80
78184;DHT22;67442;44.570;18.610;2023-05-24T00:11:37;24.30;68.00
78184;DHT22;67442;44.570;18.610;2023-05-24T00:14:04;24.20;67.90
78184;DHT22;67442;44.570;18.610;2023-05-24T00:16:31;24.20;68.00
78184;DHT22;67442;44.570;18.610;2023-05-24T00:18:59;24.20;68.00
78184;DHT22;67442;44.570;18.610;2023-05-24T00:21:26;24.20;68.10
78184;DHT22;67442;44.570;18.610;2023-05-24T00:23:53;24.30;68.30
78184;DHT22;67442;44.570;18.610;2023-05-24T00:26:20;24.20;68.10
78184;DHT22;67442;44.570;18.610;2023-05-24T00:28:48;24.30;68.30
78184;DHT22;67442;44.570;18.610;2023-05-24T00:31:15;24.30;68.30
78184;DHT22;67442;44.570;18.610;2023-05-24T00:33:42;24.30;68.30
78184;DHT22;67442;44.570;18.610;2023-05-24T00:36:10;24.20;68.30
78184;DHT22;67442;44.570;18.610;2023-05-24T00:38:37;24.20;68.20
78184;DHT22;67442;44.570;18.610;2023-05-24T00:41:07;24.20;68.30
78184;DHT22;67442;44.570;18.610;2023-05-24T00:43:37;24.20;68.30
78184;DHT22;67442;44.570;18.610;2023-05-24T00:49:09;24.20;68.20
78184;DHT22;67442;44.570;18.610;2023-05-24T00:51:37;24.20;68.30
78184;DHT22;67442;44.570;18.610;2023-05-24T00:54:04;24.20;68.40
78184;DHT22;67442;44.570;18.610;2023-05-24T00:56:32;24.20;68.30
78184;DHT22;67442;44.570;18.610;2023-05-24T00:59:03;24.20;68.50
78184;DHT22;67442;44.570;18.610;2023-05-24T01:01:31;24.20;68.50
78184;DHT22;67442;44.570;18.610;2023-05-24T01:03:58;24.20;68.50
78184;DHT22;67442;44.570;18.610;2023-05-24T01:06:26;24.20;68.50
78184;DHT22;67442;44.570;18.610;2023-05-24T01:21:25;24.20;68.50
78184;DHT22;67442;44.570;18.610;2023-05-24T01:24:17;24.20;68.70
78184;DHT22;67442;44.570;18.610;2023-05-24T01:29:21;24.20;68.70
78184;DHT22;67442;44.570;18.610;2023-05-24T01:31:48;24.20;68.70
78184;DHT22;67442;44.570;18.610;2023-05-24T01:34:16;24.20;68.80
78184;DHT22;67442;44.570;18.610;2023-05-24T01:36:47;24.20;68.70
78184;DHT22;67442;44.570;18.610;2023-05-24T01:39:14;24.20;68.80
78184;DHT22;67442;44.570;18.610;2023-05-24T01:42:06;24.20;68.80
78184;DHT22;67442;44.570;18.610;2023-05-24T01:44:38;24.20;68.80
78184;DHT22;67442;44.570;18.610;2023-05-24T01:49:50;24.20;68.90
78184;DHT22;67442;44.570;18.610;2023-05-24T01:52:22;24.20;68.90
78184;DHT22;67442;44.570;18.610;2023-05-24T01:54:52;24.20;69.00
78184;DHT22;67442;44.570;18.610;2023-05-24T01:57:19;24.20;69.00
78184;DHT22;67442;44.570;18.610;2023-05-24T01:59:48;24.20;69.00
78184;DHT22;67442;44.570;18.610;2023-05-24T02:02:16;24.20;69.00
78184;DHT22;67442;44.570;18.610;2023-05-24T02:04:47;24.20;69.00
78184;DHT22;67442;44.570;18.610;2023-05-24T02:07:15;24.20;69.10
78184;DHT22;67442;44.570;18.610;2023-05-24T02:09:43;24.20;69.20
78184;DHT22;67442;44.570;18.610;2023-05-24T02:12:11;24.20;69.20
78184;DHT22;67442;44.570;18.610;2023-05-24T02:14:38;24.20;69.30
78184;DHT22;67442;44.570;18.610;2023-05-24T02:17:08;24.20;69.40
78184;DHT22;67442;44.570;18.610;2023-05-24T02:19:34;24.20;69.40
78184;DHT22;67442;44.570;18.610;2023-05-24T02:22:21;24.20;69.50
78184;DHT22;67442;44.570;18.610;2023-05-24T02:24:48;24.20;69.40
78184;DHT22;67442;44.570;18.610;2023-05-24T02:27:15;24.20;69.40
78184;DHT22;67442;44.570;18.610;2023-05-24T02:29:47;24.20;69.40
78184;DHT22;67442;44.570;18.610;2023-05-24T02:32:14;24.20;69.40
78184;DHT22;67442;44.570;18.610;2023-05-24T02:34:41;24.20;69.50
78184;DHT22;67442;44.570;18.610;2023-05-24T02:37:08;24.20;69.50
78184;DHT22;67442;44.570;18.610;2023-05-24T02:39:35;24.20;69.50
78184;DHT22;67442;44.570;18.610;2023-05-24T02:42:02;24.20;69.50
78184;DHT22;67442;44.570;18.610;2023-05-24T02:44:31;24.20;69.60
78184;DHT22;67442;44.570;18.610;2023-05-24T02:46:58;24.20;69.70
78184;DHT22;67442;44.570;18.610;2023-05-24T02:49:25;24.20;69.70
78184;DHT22;67442;44.570;18.610;2023-05-24T02:51:52;24.20;69.60
78184;DHT22;67442;44.570;18.610;2023-05-24T02:54:24;24.20;69.70
78184;DHT22;67442;44.570;18.610;2023-05-24T02:56:51;24.20;69.70
78184;DHT22;67442;44.570;18.610;2023-05-24T02:59:18;24.20;69.70
78184;DHT22;67442;44.570;18.610;2023-05-24T03:01:46;24.20;69.70
78184;DHT22;67442;44.570;18.610;2023-05-24T03:04:13;24.20;69.70
78184;DHT22;67442;44.570;18.610;2023-05-24T03:06:41;24.20;69.70
78184;DHT22;67442;44.570;18.610;2023-05-24T03:09:08;24.20;69.70
78184;DHT22;67442;44.570;18.610;2023-05-24T03:11:36;24.20;69.60
78184;DHT22;67442;44.570;18.610;2023-05-24T03:14:03;24.20;69.70
78184;DHT22;67442;44.570;18.610;2023-05-24T03:16:31;24.20;69.70
78184;DHT22;67442;44.570;18.610;2023-05-24T03:18:59;24.20;69.60
78184;DHT22;67442;44.570;18.610;2023-05-24T03:21:26;24.20;69.60
78184;DHT22;67442;44.570;18.610;2023-05-24T03:23:57;24.20;69.70
78184;DHT22;67442;44.570;18.610;2023-05-24T03:26:24;24.20;69.60
78184;DHT22;67442;44.570;18.610;2023-05-24T03:28:51;24.20;69.70
78184;DHT22;67442;44.570;18.610;2023-05-24T03:31:22;24.20;70.40
78184;DHT22;67442;44.570;18.610;2023-05-24T03:33:54;24.20;69.60
78184;DHT22;67442;44.570;18.610;2023-05-24T03:36:21;24.20;69.70
78184;DHT22;67442;44.570;18.610;2023-05-24T03:38:51;24.20;69.70
78184;DHT22;67442;44.570;18.610;2023-05-24T03:41:18;24.20;69.70
78184;DHT22;67442;44.570;18.610;2023-05-24T03:43:45;24.20;69.60
78184;DHT22;67442;44.570;18.610;2023-05-24T03:46:12;24.20;69.70
78184;DHT22;67442;44.570;18.610;2023-05-24T03:48:39;24.20;69.70
78184;DHT22;67442;44.570;18.610;2023-05-24T03:51:06;24.20;69.70
78184;DHT22;67442;44.570;18.610;2023-05-24T03:53:34;24.20;69.70
78184;DHT22;67442;44.570;18.610;2023-05-24T03:56:02;24.20;69.70
78184;DHT22;67442;44.570;18.610;2023-05-24T03:58:33;24.20;69.60
78184;DHT22;67442;44.570;18.610;2023-05-24T04:01:05;24.20;69.60
78184;DHT22;67442;44.570;18.610;2023-05-24T04:03:36;24.20;69.70
78184;DHT22;67442;44.570;18.610;2023-05-24T04:06:04;24.20;69.70
78184;DHT22;67442;44.570;18.610;2023-05-24T04:08:32;24.20;69.70
78184;DHT22;67442;44.570;18.610;2023-05-24T04:11:03;24.10;69.60
78184;DHT22;67442;44.570;18.610;2023-05-24T04:13:30;24.20;69.70
78184;DHT22;67442;44.570;18.610;2023-05-24T04:15:57;24.20;69.70
78184;DHT22;67442;44.570;18.610;2023-05-24T04:18:25;24.20;69.70
78184;DHT22;67442;44.570;18.610;2023-05-24T04:20:52;24.10;69.60
78184;DHT22;67442;44.570;18.610;2023-05-24T04:23:19;24.20;69.70
78184;DHT22;67442;44.570;18.610;2023-05-24T04:25:47;24.20;69.70
78184;DHT22;67442;44.570;18.610;2023-05-24T04:28:14;24.20;69.80
78184;DHT22;67442;44.570;18.610;2023-05-24T04:30:42;24.20;69.80
78184;DHT22;67442;44.570;18.610;2023-05-24T04:33:11;24.20;69.80
78184;DHT22;67442;44.570;18.610;2023-05-24T04:35:43;24.20;69.80
78184;DHT22;67442;44.570;18.610;2023-05-24T04:38:15;24.20;69.70
78184;DHT22;67442;44.570;18.610;2023-05-24T04:40:47;24.20;69.60
78184;DHT22;67442;44.570;18.610;2023-05-24T04:43:18;24.20;69.50
78184;DHT22;67442;44.570;18.610;2023-05-24T04:45:46;24.20;69.40
78184;DHT22;67442;44.570;18.610;2023-05-24T04:48:12;24.20;69.40
78184;DHT22;67442;44.570;18.610;2023-05-24T04:50:39;24.20;69.40
78184;DHT22;67442;44.570;18.610;2023-05-24T04:53:06;24.20;69.60
78184;DHT22;67442;44.570;18.610;2023-05-24T04:55:33;24.20;69.70
78184;DHT22;67442;44.570;18.610;2023-05-24T04:58:01;24.20;69.70
78184;DHT22;67442;44.570;18.610;2023-05-24T05:00:28;24.20;69.80
78184;DHT22;67442;44.570;18.610;2023-05-24T05:03:00;24.20;69.80
78184;DHT22;67442;44.570;18.610;2023-05-24T05:05:27;24.20;69.90
78184;DHT22;67442;44.570;18.610;2023-05-24T05:07:54;24.20;69.90
78184;DHT22;67442;44.570;18.610;2023-05-24T05:10:21;24.20;69.80
78184;DHT22;67442;44.570;18.610;2023-05-24T05:12:49;24.20;69.80
78184;DHT22;67442;44.570;18.610;2023-05-24T05:15:16;24.20;69.80
78184;DHT22;67442;44.570;18.610;2023-05-24T05:17:44;24.20;69.80
78184;DHT22;67442;44.570;18.610;2023-05-24T05:20:14;24.20;69.70
78184;DHT22;67442;44.570;18.610;2023-05-24T05:22:46;24.20;69.70
78184;DHT22;67442;44.570;18.610;2023-05-24T05:25:13;24.20;69.60
78184;DHT22;67442;44.570;18.610;2023-05-24T05:27:40;24.20;69.50
78184;DHT22;67442;44.570;18.610;2023-05-24T05:30:12;24.20;69.50
78184;DHT22;67442;44.570;18.610;2023-05-24T05:32:39;24.20;69.50
78184;DHT22;67442;44.570;18.610;2023-05-24T05:35:07;24.20;69.40
78184;DHT22;67442;44.570;18.610;2023-05-24T05:37:39;24.20;69.40
78184;DHT22;67442;44.570;18.610;2023-05-24T05:40:07;24.20;69.40
78184;DHT22;67442;44.570;18.610;2023-05-24T05:42:35;24.20;69.30
78184;DHT22;67442;44.570;18.610;2023-05-24T05:45:07;24.20;69.20
78184;DHT22;67442;44.570;18.610;2023-05-24T05:47:34;24.20;69.20
78184;DHT22;67442;44.570;18.610;2023-05-24T05:50:02;24.20;69.20
78184;DHT22;67442;44.570;18.610;2023-05-24T05:52:29;24.20;69.20
78184;DHT22;67442;44.570;18.610;2023-05-24T05:54:57;24.20;69.10
78184;DHT22;67442;44.570;18.610;2023-05-24T05:57:25;24.20;69.10
78184;DHT22;67442;44.570;18.610;2023-05-24T05:59:56;24.20;69.10
78184;DHT22;67442;44.570;18.610;2023-05-24T06:02:27;24.20;69.00
78184;DHT22;67442;44.570;18.610;2023-05-24T06:04:54;24.20;69.00
78184;DHT22;67442;44.570;18.610;2023-05-24T06:07:22;24.20;69.00
78184;DHT22;67442;44.570;18.610;2023-05-24T06:09:49;24.20;69.00
78184;DHT22;67442;44.570;18.610;2023-05-24T06:12:16;24.20;69.00
78184;DHT22;67442;44.570;18.610;2023-05-24T06:14:43;24.20;69.70
78184;DHT22;67442;44.570;18.610;2023-05-24T06:17:16;24.20;68.90
78184;DHT22;67442;44.570;18.610;2023-05-24T06:19:44;24.20;68.90
78184;DHT22;67442;44.570;18.610;2023-05-24T06:22:11;24.20;68.90
78184;DHT22;67442;44.570;18.610;2023-05-24T06:24:39;24.20;68.90
78184;DHT22;67442;44.570;18.610;2023-05-24T06:27:06;24.20;68.90
78184;DHT22;67442;44.570;18.610;2023-05-24T06:29:37;24.20;68.80
78184;DHT22;67442;44.570;18.610;2023-05-24T06:32:06;24.20;68.80
78184;DHT22;67442;44.570;18.610;2023-05-24T06:34:33;24.20;68.80
78184;DHT22;67442;44.570;18.610;2023-05-24T06:37:00;24.20;68.80
78184;DHT22;67442;44.570;18.610;2023-05-24T06:39:28;24.20;68.70
78184;DHT22;67442;44.570;18.610;2023-05-24T06:41:55;24.20;68.70
78184;DHT22;67442;44.570;18.610;2023-05-24T06:44:23;24.20;68.70
78184;DHT22;67442;44.570;18.610;2023-05-24T06:46:57;24.20;68.70
78184;DHT22;67442;44.570;18.610;2023-05-24T06:49:24;24.20;68.70
78184;DHT22;67442;44.570;18.610;2023-05-24T06:51:52;24.20;68.70
78184;DHT22;67442;44.570;18.610;2023-05-24T06:54:19;24.20;68.70
78184;DHT22;67442;44.570;18.610;2023-05-24T06:56:46;24.20;68.70
78184;DHT22;67442;44.570;18.610;2023-05-24T06:59:13;24.20;68.60
78184;DHT22;67442;44.570;18.610;2023-05-24T07:01:39;24.20;68.60
78184;DHT22;67442;44.570;18.610;2023-05-24T07:04:08;24.20;68.50
78184;DHT22;67442;44.570;18.610;2023-05-24T07:06:35;24.20;68.50
78184;DHT22;67442;44.570;18.610;2023-05-24T07:09:05;24.20;68.50
78184;DHT22;67442;44.570;18.610;2023-05-24T07:11:32;24.20;68.40
78184;DHT22;67442;44.570;18.610;2023-05-24T07:14:00;24.20;68.40
78184;DHT22;67442;44.570;18.610;2023-05-24T07:16:27;24.20;68.40
78184;DHT22;67442;44.570;18.610;2023-05-24T07:18:55;24.20;68.40
78184;DHT22;67442;44.570;18.610;2023-05-24T07:21:23;24.20;68.40
78184;DHT22;67442;44.570;18.610;2023-05-24T07:23:50;24.20;68.40
78184;DHT22;67442;44.570;18.610;2023-05-24T07:26:17;24.20;68.40
78184;DHT22;67442;44.570;18.610;2023-05-24T07:28:48;24.20;68.40
78184;DHT22;67442;44.570;18.610;2023-05-24T07:31:15;24.20;68.60
78184;DHT22;67442;44.570;18.610;2023-05-24T07:33:42;24.20;68.40
78184;DHT22;67442;44.570;18.610;2023-05-24T07:36:09;24.20;68.30
78184;DHT22;67442;44.570;18.610;2023-05-24T07:38:36;24.20;68.40
78184;DHT22;67442;44.570;18.610;2023-05-24T07:41:06;24.20;68.30
78184;DHT22;67442;44.570;18.610;2023-05-24T07:43:33;24.20;68.30
78184;DHT22;67442;44.570;18.610;2023-05-24T07:46:00;24.20;68.30
78184;DHT22;67442;44.570;18.610;2023-05-24T07:48:27;24.20;68.30
78184;DHT22;67442;44.570;18.610;2023-05-24T07:50:54;24.20;68.30
78184;DHT22;67442;44.570;18.610;2023-05-24T07:53:22;24.20;68.30
78184;DHT22;67442;44.570;18.610;2023-05-24T07:55:49;24.20;68.30
78184;DHT22;67442;44.570;18.610;2023-05-24T07:58:17;24.20;68.30
78184;DHT22;67442;44.570;18.610;2023-05-24T08:00:44;24.30;68.30
78184;DHT22;67442;44.570;18.610;2023-05-24T08:03:12;24.20;68.30
78184;DHT22;67442;44.570;18.610;2023-05-24T08:05:41;24.20;68.30
78184;DHT22;67442;44.570;18.610;2023-05-24T08:08:08;24.20;68.30
78184;DHT22;67442;44.570;18.610;2023-05-24T08:10:35;24.20;68.30
78184;DHT22;67442;44.570;18.610;2023-05-24T08:13:04;24.20;68.20
78184;DHT22;67442;44.570;18.610;2023-05-24T08:15:35;24.20;68.10
78184;DHT22;67442;44.570;18.610;2023-05-24T08:18:01;24.20;68.20
78184;DHT22;67442;44.570;18.610;2023-05-24T08:20:30;24.20;68.10
78184;DHT22;67442;44.570;18.610;2023-05-24T08:23:01;24.20;68.20
78184;DHT22;67442;44.570;18.610;2023-05-24T08:25:28;24.20;68.10
78184;DHT22;67442;44.570;18.610;2023-05-24T08:27:56;24.20;68.10
78184;DHT22;67442;44.570;18.610;2023-05-24T08:30:27;24.20;68.10
78184;DHT22;67442;44.570;18.610;2023-05-24T08:32:54;24.20;68.80
78184;DHT22;67442;44.570;18.610;2023-05-24T08:35:21;24.20;68.10
78184;DHT22;67442;44.570;18.610;2023-05-24T08:37:48;24.20;68.10
78184;DHT22;67442;44.570;18.610;2023-05-24T08:40:19;24.20;68.00
78184;DHT22;67442;44.570;18.610;2023-05-24T08:42:45;24.20;68.00
78184;DHT22;67442;44.570;18.610;2023-05-24T08:45:14;24.30;68.10
78184;DHT22;67442;44.570;18.610;2023-05-24T08:47:43;24.20;68.00
78184;DHT22;67442;44.570;18.610;2023-05-24T08:50:10;24.20;68.00
78184;DHT22;67442;44.570;18.610;2023-05-24T08:52:37;24.20;68.00
78184;DHT22;67442;44.570;18.610;2023-05-24T08:55:05;24.20;68.00
78184;DHT22;67442;44.570;18.610;2023-05-24T08:57:39;24.20;68.00
78184;DHT22;67442;44.570;18.610;2023-05-24T09:00:10;24.20;68.00
78184;DHT22;67442;44.570;18.610;2023-05-24T09:02:38;24.20;68.00
78184;DHT22;67442;44.570;18.610;2023-05-24T09:05:09;24.20;68.00
78184;DHT22;67442;44.570;18.610;2023-05-24T09:08:01;24.20;68.00
78184;DHT22;67442;44.570;18.610;2023-05-24T09:10:28;24.20;68.00
78184;DHT22;67442;44.570;18.610;2023-05-24T09:12:57;24.20;68.00
78184;DHT22;67442;44.570;18.610;2023-05-24T09:15:27;24.20;68.00
78184;DHT22;67442;44.570;18.610;2023-05-24T09:17:54;24.30;68.00
78184;DHT22;67442;44.570;18.610;2023-05-24T09:20:20;24.30;68.00
78184;DHT22;67442;44.570;18.610;2023-05-24T09:22:52;24.20;68.00
78184;DHT22;67442;44.570;18.610;2023-05-24T09:25:19;24.20;67.90
78184;DHT22;67442;44.570;18.610;2023-05-24T09:27:51;24.20;67.90
78184;DHT22;67442;44.570;18.610;2023-05-24T09:30:22;24.20;68.00
78184;DHT22;67442;44.570;18.610;2023-05-24T09:33:08;24.20;68.00
78184;DHT22;67442;44.570;18.610;2023-05-24T09:35:43;24.20;67.90
78184;DHT22;67442;44.570;18.610;2023-05-24T09:38:18;24.20;67.90
78184;DHT22;67442;44.570;18.610;2023-05-24T09:40:45;24.20;67.90
78184;DHT22;67442;44.570;18.610;2023-05-24T09:43:16;24.20;67.90
78184;DHT22;67442;44.570;18.610;2023-05-24T09:45:44;24.20;67.90
78184;DHT22;67442;44.570;18.610;2023-05-24T09:48:13;24.20;67.80
78184;DHT22;67442;44.570;18.610;2023-05-24T09:50:42;24.20;67.80
78184;DHT22;67442;44.570;18.610;2023-05-24T09:53:16;24.30;67.90
78184;DHT22;67442;44.570;18.610;2023-05-24T09:55:44;24.30;67.90
78184;DHT22;67442;44.570;18.610;2023-05-24T09:58:16;24.20;67.80
78184;DHT22;67442;44.570;18.610;2023-05-24T10:00:43;24.30;67.90
78184;DHT22;67442;44.570;18.610;2023-05-24T10:03:11;24.30;67.90
78184;DHT22;67442;44.570;18.610;2023-05-24T10:05:44;24.30;67.90
78184;DHT22;67442;44.570;18.610;2023-05-24T10:08:12;24.30;67.90
78184;DHT22;67442;44.570;18.610;2023-05-24T10:10:41;24.20;67.80
78184;DHT22;67442;44.570;18.610;2023-05-24T10:13:12;24.30;67.80
78184;DHT22;67442;44.570;18.610;2023-05-24T10:15:41;24.30;67.90
78184;DHT22;67442;44.570;18.610;2023-05-24T10:18:08;24.30;67.80
78184;DHT22;67442;44.570;18.610;2023-05-24T10:20:39;24.30;67.80
78184;DHT22;67442;44.570;18.610;2023-05-24T10:23:10;24.30;67.80
78184;DHT22;67442;44.570;18.610;2023-05-24T10:25:48;24.20;67.80
78184;DHT22;67442;44.570;18.610;2023-05-24T10:28:17;24.30;67.80
78184;DHT22;67442;44.570;18.610;2023-05-24T10:31:06;24.30;67.80
78184;DHT22;67442;44.570;18.610;2023-05-24T10:33:36;24.20;67.80
78184;DHT22;67442;44.570;18.610;2023-05-24T10:36:05;24.30;67.80
78184;DHT22;67442;44.570;18.610;2023-05-24T10:38:34;24.30;67.80
78184;DHT22;67442;44.570;18.610;2023-05-24T10:41:02;24.30;67.80
78184;DHT22;67442;44.570;18.610;2023-05-24T10:43:30;24.30;67.80
78184;DHT22;67442;44.570;18.610;2023-05-24T10:45:56;24.30;67.80
78184;DHT22;67442;44.570;18.610;2023-05-24T10:50:53;24.30;67.80
78184;DHT22;67442;44.570;18.610;2023-05-24T10:53:22;24.30;67.80
78184;DHT22;67442;44.570;18.610;2023-05-24T10:55:59;24.20;67.70
78184;DHT22;67442;44.570;18.610;2023-05-24T10:58:44;24.30;67.80
78184;DHT22;67442;44.570;18.610;2023-05-24T11:01:31;24.30;67.80
78184;DHT22;67442;44.570;18.610;2023-05-24T11:04:08;24.30;67.80
78184;DHT22;67442;44.570;18.610;2023-05-24T11:07:07;24.30;67.80
78184;DHT22;67442;44.570;18.610;2023-05-24T11:09:39;24.30;67.80
78184;DHT22;67442;44.570;18.610;2023-05-24T11:12:17;24.30;68.30
78184;DHT22;67442;44.570;18.610;2023-05-24T11:14:52;24.30;67.70
78184;DHT22;67442;44.570;18.610;2023-05-24T11:17:24;24.30;67.70
78184;DHT22;67442;44.570;18.610;2023-05-24T11:19:52;24.30;67.80
78184;DHT22;67442;44.570;18.610;2023-05-24T11:22:21;24.30;67.70
78184;DHT22;67442;44.570;18.610;2023-05-24T11:24:52;24.30;67.70
78184;DHT22;67442;44.570;18.610;2023-05-24T11:27:25;24.20;67.70
78184;DHT22;67442;44.570;18.610;2023-05-24T11:29:52;24.30;68.50
78184;DHT22;67442;44.570;18.610;2023-05-24T11:32:20;24.30;67.80
78184;DHT22;67442;44.570;18.610;2023-05-24T11:34:49;24.30;67.80
78184;DHT22;67442;44.570;18.610;2023-05-24T11:37:16;24.30;67.80
78184;DHT22;67442;44.570;18.610;2023-05-24T11:39:49;24.30;67.70
78184;DHT22;67442;44.570;18.610;2023-05-24T11:42:21;24.30;67.70
78184;DHT22;67442;44.570;18.610;2023-05-24T11:44:48;24.30;67.70
78184;DHT22;67442;44.570;18.610;2023-05-24T11:47:15;24.30;67.70
78184;DHT22;67442;44.570;18.610;2023-05-24T11:49:42;24.30;67.70
78184;DHT22;67442;44.570;18.610;2023-05-24T11:52:10;24.30;67.70
78184;DHT22;67442;44.570;18.610;2023-05-24T11:54:37;24.30;67.70
78184;DHT22;67442;44.570;18.610;2023-05-24T11:57:11;24.30;67.70
78184;DHT22;67442;44.570;18.610;2023-05-24T11:59:38;24.30;67.70
78184;DHT22;67442;44.570;18.610;2023-05-24T12:02:07;24.30;67.70
78184;DHT22;67442;44.570;18.610;2023-05-24T12:04:38;24.30;67.70
78184;DHT22;67442;44.570;18.610;2023-05-24T12:07:28;24.30;67.70
78184;DHT22;67442;44.570;18.610;2023-05-24T12:09:56;24.30;67.70
78184;DHT22;67442;44.570;18.610;2023-05-24T12:12:23;24.30;67.70
78184;DHT22;67442;44.570;18.610;2023-05-24T12:14:55;24.30;67.70
78184;DHT22;67442;44.570;18.610;2023-05-24T12:17:26;24.30;67.70
78184;DHT22;67442;44.570;18.610;2023-05-24T12:19:53;24.30;67.70
78184;DHT22;67442;44.570;18.610;2023-05-24T12:22:26;24.30;67.70
78184;DHT22;67442;44.570;18.610;2023-05-24T12:24:52;24.30;67.70
78184;DHT22;67442;44.570;18.610;2023-05-24T12:27:26;24.30;67.70
78184;DHT22;67442;44.570;18.610;2023-05-24T12:30:05;24.30;67.70
78184;DHT22;67442;44.570;18.610;2023-05-24T12:32:35;24.30;67.70
78184;DHT22;67442;44.570;18.610;2023-05-24T12:35:09;24.30;67.70
78184;DHT22;67442;44.570;18.610;2023-05-24T12:37:37;24.30;67.70
78184;DHT22;67442;44.570;18.610;2023-05-24T12:40:20;24.30;67.70
78184;DHT22;67442;44.570;18.610;2023-05-24T12:42:54;24.30;67.60
78184;DHT22;67442;44.570;18.610;2023-05-24T12:45:25;24.30;67.70
78184;DHT22;67442;44.570;18.610;2023-05-24T12:47:53;24.30;67.70
78184;DHT22;67442;44.570;18.610;2023-05-24T12:50:21;24.30;67.70
78184;DHT22;67442;44.570;18.610;2023-05-24T12:52:49;24.30;67.70
78184;DHT22;67442;44.570;18.610;2023-05-24T12:55:21;24.30;67.70
78184;DHT22;67442;44.570;18.610;2023-05-24T12:57:48;24.30;67.70
78184;DHT22;67442;44.570;18.610;2023-05-24T13:00:27;24.30;67.70
78184;DHT22;67442;44.570;18.610;2023-05-24T13:02:55;24.30;67.60
78184;DHT22;67442;44.570;18.610;2023-05-24T13:05:24;24.30;67.60
78184;DHT22;67442;44.570;18.610;2023-05-24T13:07:56;24.30;67.70
78184;DHT22;67442;44.570;18.610;2023-05-24T13:10:27;24.30;67.60
78184;DHT22;67442;44.570;18.610;2023-05-24T13:12:58;24.30;67.60
78184;DHT22;67442;44.570;18.610;2023-05-24T13:15:26;24.30;67.70
78184;DHT22;67442;44.570;18.610;2023-05-24T13:17:53;24.30;67.60
78184;DHT22;67442;44.570;18.610;2023-05-24T13:20:24;24.30;67.70
78184;DHT22;67442;44.570;18.610;2023-05-24T13:22:51;24.30;67.60
78184;DHT22;67442;44.570;18.610;2023-05-24T13:25:22;24.30;67.60
78184;DHT22;67442;44.570;18.610;2023-05-24T13:27:50;24.30;67.60
78184;DHT22;67442;44.570;18.610;2023-05-24T13:30:17;24.30;67.60
78184;DHT22;67442;44.570;18.610;2023-05-24T13:32:53;24.30;67.70
78184;DHT22;67442;44.570;18.610;2023-05-24T13:35:27;24.30;67.60
78184;DHT22;67442;44.570;18.610;2023-05-24T13:37:59;24.30;67.60
78184;DHT22;67442;44.570;18.610;2023-05-24T13:40:26;24.30;67.60
78184;DHT22;67442;44.570;18.610;2023-05-24T13:42:55;24.30;67.60
78184;DHT22;67442;44.570;18.610;2023-05-24T13:45:23;24.30;67.70
78184;DHT22;67442;44.570;18.610;2023-05-24T13:47:50;24.30;67.60
78184;DHT22;67442;44.570;18.610;2023-05-24T13:50:26;24.30;67.60
78184;DHT22;67442;44.570;18.610;2023-05-24T13:52:53;24.30;67.60
78184;DHT22;67442;44.570;18.610;2023-05-24T13:55:20;24.30;67.60
78184;DHT22;67442;44.570;18.610;2023-05-24T13:57:48;24.30;67.60
78184;DHT22;67442;44.570;18.610;2023-05-24T14:00:17;24.30;67.60
78184;DHT22;67442;44.570;18.610;2023-05-24T14:02:45;24.30;67.60
78184;DHT22;67442;44.570;18.610;2023-05-24T14:05:17;24.30;67.60
78184;DHT22;67442;44.570;18.610;2023-05-24T14:07:43;24.30;67.60
78184;DHT22;67442;44.570;18.610;2023-05-24T14:10:14;24.30;67.60
78184;DHT22;67442;44.570;18.610;2023-05-24T14:12:41;24.30;67.60
78184;DHT22;67442;44.570;18.610;2023-05-24T14:15:10;24.30;67.60
78184;DHT22;67442;44.570;18.610;2023-05-24T14:17:38;24.30;67.60
78184;DHT22;67442;44.570;18.610;2023-05-24T14:20:07;24.30;67.60
78184;DHT22;67442;44.570;18.610;2023-05-24T14:22:36;24.30;67.60
78184;DHT22;67442;44.570;18.610;2023-05-24T14:25:08;24.30;67.60
78184;DHT22;67442;44.570;18.610;2023-05-24T14:27:36;24.30;67.60
78184;DHT22;67442;44.570;18.610;2023-05-24T14:30:07;24.30;67.60
78184;DHT22;67442;44.570;18.610;2023-05-24T14:32:36;24.30;67.60
78184;DHT22;67442;44.570;18.610;2023-05-24T14:35:03;24.30;67.60
78184;DHT22;67442;44.570;18.610;2023-05-24T14:37:30;24.30;67.60
78184;DHT22;67442;44.570;18.610;2023-05-24T14:39:57;24.30;67.60
78184;DHT22;67442;44.570;18.610;2023-05-24T14:42:24;24.30;67.60
78184;DHT22;67442;44.570;18.610;2023-05-24T14:44:52;24.30;67.60
78184;DHT22;67442;44.570;18.610;2023-05-24T14:47:23;24.30;67.60
78184;DHT22;67442;44.570;18.610;2023-05-24T14:49:54;24.30;67.60
78184;DHT22;67442;44.570;18.610;2023-05-24T14:52:21;24.30;67.60
78184;DHT22;67442;44.570;18.610;2023-05-24T14:54:53;24.30;67.60
78184;DHT22;67442;44.570;18.610;2023-05-24T14:57:20;24.30;67.60
78184;DHT22;67442;44.570;18.610;2023-05-24T14:59:47;24.30;67.60
78184;DHT22;67442;44.570;18.610;2023-05-24T15:02:19;24.30;67.60
78184;DHT22;67442;44.570;18.610;2023-05-24T15:04:46;24.30;67.60
78184;DHT22;67442;44.570;18.610;2023-05-24T15:07:13;24.30;67.60
78184;DHT22;67442;44.570;18.610;2023-05-24T15:09:44;24.30;67.60
78184;DHT22;67442;44.570;18.610;2023-05-24T15:12:12;24.30;68.40
78184;DHT22;67442;44.570;18.610;2023-05-24T15:14:40;24.30;67.60
78184;DHT22;67442;44.570;18.610;2023-05-24T15:17:08;24.30;67.60
78184;DHT22;67442;44.570;18.610;2023-05-24T15:19:39;24.30;67.60
78184;DHT22;67442;44.570;18.610;2023-05-24T15:22:06;24.30;67.60
78184;DHT22;67442;44.570;18.610;2023-05-24T15:24:33;24.30;67.60
78184;DHT22;67442;44.570;18.610;2023-05-24T15:27:01;24.30;67.60
78184;DHT22;67442;44.570;18.610;2023-05-24T15:29:28;24.30;67.60
78184;DHT22;67442;44.570;18.610;2023-05-24T15:31:58;24.30;67.60
78184;DHT22;67442;44.570;18.610;2023-05-24T15:34:27;24.40;67.60
78184;DHT22;67442;44.570;18.610;2023-05-24T15:36:54;24.30;67.60
78184;DHT22;67442;44.570;18.610;2023-05-24T15:39:22;24.40;67.60
78184;DHT22;67442;44.570;18.610;2023-05-24T15:41:53;24.40;67.60
78184;DHT22;67442;44.570;18.610;2023-05-24T15:44:24;24.30;67.60
78184;DHT22;67442;44.570;18.610;2023-05-24T15:46:52;24.30;67.60
78184;DHT22;67442;44.570;18.610;2023-05-24T15:49:21;24.30;67.60
78184;DHT22;67442;44.570;18.610;2023-05-24T15:51:49;24.30;67.60